sensor_id;sensor_type;location;lat;lon;timestamp;temperature;humidity
20376;DHT22;10347;51.828;6.466;2024-03-17T00:02:08;9.10;99.90
20376;DHT22;10347;51.828;6.466;2024-03-17T00:04:34;9.10;99.90
20376;DHT22;10347;51.828;6.466;2024-03-17T00:07:00;9.10;99.90
20376;DHT22;10347;51.828;6.466;2024-03-17T00:09:25;9.10;99.90
20376;DHT22;10347;51.828;6.466;2024-03-17T00:11:51;9.10;99.90
20376;DHT22;10347;51.828;6.466;2024-03-17T00:14:17;9.10;99.90
20376;DHT22;10347;51.828;6.466;2024-03-17T00:16:44;9.10;99.90
20376;DHT22;10347;51.828;6.466;2024-03-17T00:19:09;9.00;99.90
20376;DHT22;10347;51.828;6.466;2024-03-17T00:21:35;9.00;99.90
20376;DHT22;10347;51.828;6.466;2024-03-17T00:24:01;9.00;99.90
20376;DHT22;10347;51.828;6.466;2024-03-17T00:26:28;9.00;99.90
20376;DHT22;10347;51.828;6.466;2024-03-17T00:28:54;8.90;99.90
20376;DHT22;10347;51.828;6.466;2024-03-17T00:31:20;8.90;99.90
20376;DHT22;10347;51.828;6.466;2024-03-17T00:33:46;8.90;99.90
20376;DHT22;10347;51.828;6.466;2024-03-17T00:36:12;8.90;99.90
20376;DHT22;10347;51.828;6.466;2024-03-17T00:38:37;8.90;99.90
20376;DHT22;10347;51.828;6.466;2024-03-17T00:41:04;8.90;99.90
20376;DHT22;10347;51.828;6.466;2024-03-17T00:43:30;8.80;99.90
20376;DHT22;10347;51.828;6.466;2024-03-17T00:45:55;8.80;99.90
20376;DHT22;10347;51.828;6.466;2024-03-17T00:48:21;8.80;99.90
20376;DHT22;10347;51.828;6.466;2024-03-17T00:50:55;8.80;99.90
20376;DHT22;10347;51.828;6.466;2024-03-17T00:53:21;8.80;99.90
20376;DHT22;10347;51.828;6.466;2024-03-17T00:55:51;8.80;99.90
20376;DHT22;10347;51.828;6.466;2024-03-17T00:58:18;8.80;99.90
20376;DHT22;10347;51.828;6.466;2024-03-17T01:00:43;8.70;99.90
20376;DHT22;10347;51.828;6.466;2024-03-17T01:03:09;8.70;99.90
20376;DHT22;10347;51.828;6.466;2024-03-17T01:05:34;8.70;99.90
20376;DHT22;10347;51.828;6.466;2024-03-17T01:08:06;8.60;99.90
20376;DHT22;10347;51.828;6.466;2024-03-17T01:10:32;8.70;99.90
20376;DHT22;10347;51.828;6.466;2024-03-17T01:12:57;8.70;99.90
20376;DHT22;10347;51.828;6.466;2024-03-17T01:15:23;8.70;99.90
20376;DHT22;10347;51.828;6.466;2024-03-17T01:17:49;8.70;99.90
20376;DHT22;10347;51.828;6.466;2024-03-17T01:20:16;8.70;99.90
20376;DHT22;10347;51.828;6.466;2024-03-17T01:22:41;8.70;99.90
20376;DHT22;10347;51.828;6.466;2024-03-17T01:25:07;8.60;99.90
20376;DHT22;10347;51.828;6.466;2024-03-17T01:27:34;8.60;99.90
20376;DHT22;10347;51.828;6.466;2024-03-17T01:29:59;8.60;99.90
20376;DHT22;10347;51.828;6.466;2024-03-17T01:32:25;8.60;99.90
20376;DHT22;10347;51.828;6.466;2024-03-17T01:34:50;8.70;99.90
20376;DHT22;10347;51.828;6.466;2024-03-17T01:37:16;8.70;99.90
20376;DHT22;10347;51.828;6.466;2024-03-17T01:39:42;8.60;99.90
20376;DHT22;10347;51.828;6.466;2024-03-17T01:42:07;8.60;99.90
20376;DHT22;10347;51.828;6.466;2024-03-17T01:44:33;8.60;99.90
20376;DHT22;10347;51.828;6.466;2024-03-17T01:46:59;8.50;99.90
20376;DHT22;10347;51.828;6.466;2024-03-17T01:49:26;8.50;99.90
20376;DHT22;10347;51.828;6.466;2024-03-17T01:51:53;8.50;99.90
20376;DHT22;10347;51.828;6.466;2024-03-17T01:54:18;8.50;99.90
20376;DHT22;10347;51.828;6.466;2024-03-17T01:56:45;8.40;99.90
20376;DHT22;10347;51.828;6.466;2024-03-17T01:59:10;8.50;99.90
20376;DHT22;10347;51.828;6.466;2024-03-17T02:01:37;8.50;99.90
20376;DHT22;10347;51.828;6.466;2024-03-17T02:04:04;8.50;99.90
20376;DHT22;10347;51.828;6.466;2024-03-17T02:06:30;8.40;99.90
20376;DHT22;10347;51.828;6.466;2024-03-17T02:08:56;8.40;99.90
20376;DHT22;10347;51.828;6.466;2024-03-17T02:11:29;8.40;99.90
20376;DHT22;10347;51.828;6.466;2024-03-17T02:13:56;8.40;99.90
20376;DHT22;10347;51.828;6.466;2024-03-17T02:16:25;8.40;99.90
20376;DHT22;10347;51.828;6.466;2024-03-17T02:18:54;8.30;99.90
20376;DHT22;10347;51.828;6.466;2024-03-17T02:21:21;8.30;99.90
20376;DHT22;10347;51.828;6.466;2024-03-17T02:23:48;8.30;99.90
20376;DHT22;10347;51.828;6.466;2024-03-17T02:26:14;8.30;99.90
20376;DHT22;10347;51.828;6.466;2024-03-17T02:28:41;8.30;99.90
20376;DHT22;10347;51.828;6.466;2024-03-17T02:31:09;8.30;99.90
20376;DHT22;10347;51.828;6.466;2024-03-17T02:33:35;8.30;99.90
20376;DHT22;10347;51.828;6.466;2024-03-17T02:36:01;8.30;99.90
20376;DHT22;10347;51.828;6.466;2024-03-17T02:38:29;8.30;99.90
20376;DHT22;10347;51.828;6.466;2024-03-17T02:41:13;8.30;99.90
20376;DHT22;10347;51.828;6.466;2024-03-17T02:43:39;8.30;99.90
20376;DHT22;10347;51.828;6.466;2024-03-17T02:46:05;8.20;99.90
20376;DHT22;10347;51.828;6.466;2024-03-17T02:48:31;8.20;99.90
20376;DHT22;10347;51.828;6.466;2024-03-17T02:50:57;8.20;99.90
20376;DHT22;10347;51.828;6.466;2024-03-17T02:53:22;8.20;99.90
20376;DHT22;10347;51.828;6.466;2024-03-17T02:55:48;8.20;99.90
20376;DHT22;10347;51.828;6.466;2024-03-17T02:58:14;8.20;99.90
20376;DHT22;10347;51.828;6.466;2024-03-17T03:00:42;8.10;99.90
20376;DHT22;10347;51.828;6.466;2024-03-17T03:03:07;8.20;99.90
20376;DHT22;10347;51.828;6.466;2024-03-17T03:05:33;8.10;99.90
20376;DHT22;10347;51.828;6.466;2024-03-17T03:07:58;8.20;99.90
20376;DHT22;10347;51.828;6.466;2024-03-17T03:10:24;8.10;99.90
20376;DHT22;10347;51.828;6.466;2024-03-17T03:12:50;8.10;99.90
20376;DHT22;10347;51.828;6.466;2024-03-17T03:15:15;8.10;99.90
20376;DHT22;10347;51.828;6.466;2024-03-17T03:17:41;8.10;99.90
20376;DHT22;10347;51.828;6.466;2024-03-17T03:20:08;8.10;99.90
20376;DHT22;10347;51.828;6.466;2024-03-17T03:22:34;8.10;99.90
20376;DHT22;10347;51.828;6.466;2024-03-17T03:24:59;8.10;99.90
20376;DHT22;10347;51.828;6.466;2024-03-17T03:27:25;8.10;99.90
20376;DHT22;10347;51.828;6.466;2024-03-17T03:29:50;8.10;99.90
20376;DHT22;10347;51.828;6.466;2024-03-17T03:32:16;8.00;99.90
20376;DHT22;10347;51.828;6.466;2024-03-17T03:34:45;8.00;99.90
20376;DHT22;10347;51.828;6.466;2024-03-17T03:37:11;8.00;99.90
20376;DHT22;10347;51.828;6.466;2024-03-17T03:39:36;8.00;99.90
20376;DHT22;10347;51.828;6.466;2024-03-17T03:42:02;7.90;99.90
20376;DHT22;10347;51.828;6.466;2024-03-17T03:44:28;8.00;99.90
20376;DHT22;10347;51.828;6.466;2024-03-17T03:46:54;7.90;99.90
20376;DHT22;10347;51.828;6.466;2024-03-17T03:49:26;7.90;99.90
20376;DHT22;10347;51.828;6.466;2024-03-17T03:51:52;7.90;99.90
20376;DHT22;10347;51.828;6.466;2024-03-17T03:54:17;7.90;99.90
20376;DHT22;10347;51.828;6.466;2024-03-17T03:56:46;7.90;99.90
20376;DHT22;10347;51.828;6.466;2024-03-17T03:59:11;7.80;99.90
20376;DHT22;10347;51.828;6.466;2024-03-17T04:01:37;7.90;99.90
20376;DHT22;10347;51.828;6.466;2024-03-17T04:04:03;7.90;99.90
20376;DHT22;10347;51.828;6.466;2024-03-17T04:06:28;7.90;99.90
20376;DHT22;10347;51.828;6.466;2024-03-17T04:08:54;7.90;99.90
20376;DHT22;10347;51.828;6.466;2024-03-17T04:11:20;7.90;99.90
20376;DHT22;10347;51.828;6.466;2024-03-17T04:13:45;7.90;99.90
20376;DHT22;10347;51.828;6.466;2024-03-17T04:16:12;7.80;99.90
20376;DHT22;10347;51.828;6.466;2024-03-17T04:18:40;7.80;99.90
20376;DHT22;10347;51.828;6.466;2024-03-17T04:21:07;7.90;99.90
20376;DHT22;10347;51.828;6.466;2024-03-17T04:23:33;7.90;99.90
20376;DHT22;10347;51.828;6.466;2024-03-17T04:25:59;7.90;99.90
20376;DHT22;10347;51.828;6.466;2024-03-17T04:28:25;7.80;99.90
20376;DHT22;10347;51.828;6.466;2024-03-17T04:30:51;7.80;99.90
20376;DHT22;10347;51.828;6.466;2024-03-17T04:33:17;7.80;99.90
20376;DHT22;10347;51.828;6.466;2024-03-17T04:35:43;7.80;99.90
20376;DHT22;10347;51.828;6.466;2024-03-17T04:38:08;7.80;99.90
20376;DHT22;10347;51.828;6.466;2024-03-17T04:40:41;7.80;99.90
20376;DHT22;10347;51.828;6.466;2024-03-17T04:43:07;7.80;99.90
20376;DHT22;10347;51.828;6.466;2024-03-17T04:45:33;7.80;99.90
20376;DHT22;10347;51.828;6.466;2024-03-17T04:47:59;7.80;99.90
20376;DHT22;10347;51.828;6.466;2024-03-17T04:50:24;7.80;99.90
20376;DHT22;10347;51.828;6.466;2024-03-17T04:52:51;7.80;99.90
20376;DHT22;10347;51.828;6.466;2024-03-17T04:55:17;7.80;99.90
20376;DHT22;10347;51.828;6.466;2024-03-17T04:57:47;7.80;99.90
20376;DHT22;10347;51.828;6.466;2024-03-17T05:00:13;7.80;99.90
20376;DHT22;10347;51.828;6.466;2024-03-17T05:02:39;7.80;99.90
20376;DHT22;10347;51.828;6.466;2024-03-17T05:05:05;7.80;99.90
20376;DHT22;10347;51.828;6.466;2024-03-17T05:07:33;7.90;99.90
20376;DHT22;10347;51.828;6.466;2024-03-17T05:09:59;7.90;99.90
20376;DHT22;10347;51.828;6.466;2024-03-17T05:12:25;7.80;99.90
20376;DHT22;10347;51.828;6.466;2024-03-17T05:14:51;7.80;99.90
20376;DHT22;10347;51.828;6.466;2024-03-17T05:17:16;7.80;99.90
20376;DHT22;10347;51.828;6.466;2024-03-17T05:19:45;7.80;99.90
20376;DHT22;10347;51.828;6.466;2024-03-17T05:22:10;7.80;99.90
20376;DHT22;10347;51.828;6.466;2024-03-17T05:24:36;7.80;99.90
20376;DHT22;10347;51.828;6.466;2024-03-17T05:27:02;7.80;99.90
20376;DHT22;10347;51.828;6.466;2024-03-17T05:29:28;7.80;99.90
20376;DHT22;10347;51.828;6.466;2024-03-17T05:31:54;7.80;99.90
20376;DHT22;10347;51.828;6.466;2024-03-17T05:34:20;7.80;99.90
20376;DHT22;10347;51.828;6.466;2024-03-17T05:36:45;7.80;99.90
20376;DHT22;10347;51.828;6.466;2024-03-17T05:39:12;7.80;99.90
20376;DHT22;10347;51.828;6.466;2024-03-17T05:41:38;7.80;99.90
20376;DHT22;10347;51.828;6.466;2024-03-17T05:44:04;7.80;99.90
20376;DHT22;10347;51.828;6.466;2024-03-17T05:46:29;7.80;99.90
20376;DHT22;10347;51.828;6.466;2024-03-17T05:48:55;7.80;99.90
20376;DHT22;10347;51.828;6.466;2024-03-17T05:51:21;7.80;99.90
20376;DHT22;10347;51.828;6.466;2024-03-17T05:53:47;7.80;99.90
20376;DHT22;10347;51.828;6.466;2024-03-17T05:56:13;7.80;99.90
20376;DHT22;10347;51.828;6.466;2024-03-17T05:58:42;7.90;99.90
20376;DHT22;10347;51.828;6.466;2024-03-17T06:01:08;7.80;99.90
20376;DHT22;10347;51.828;6.466;2024-03-17T06:03:37;7.90;99.90
20376;DHT22;10347;51.828;6.466;2024-03-17T06:06:04;7.90;99.90
20376;DHT22;10347;51.828;6.466;2024-03-17T06:08:30;7.90;99.90
20376;DHT22;10347;51.828;6.466;2024-03-17T06:10:56;7.80;99.90
20376;DHT22;10347;51.828;6.466;2024-03-17T06:13:28;7.80;99.90
20376;DHT22;10347;51.828;6.466;2024-03-17T06:15:54;7.90;99.90
20376;DHT22;10347;51.828;6.466;2024-03-17T06:18:20;7.90;99.90
20376;DHT22;10347;51.828;6.466;2024-03-17T06:20:47;7.90;99.90
20376;DHT22;10347;51.828;6.466;2024-03-17T06:23:15;7.90;99.90
20376;DHT22;10347;51.828;6.466;2024-03-17T06:25:48;8.00;99.90
20376;DHT22;10347;51.828;6.466;2024-03-17T06:28:15;8.00;99.90
20376;DHT22;10347;51.828;6.466;2024-03-17T06:30:45;7.90;99.90
20376;DHT22;10347;51.828;6.466;2024-03-17T06:33:16;8.00;99.90
20376;DHT22;10347;51.828;6.466;2024-03-17T06:35:45;8.00;99.90
20376;DHT22;10347;51.828;6.466;2024-03-17T06:38:12;8.00;99.90
20376;DHT22;10347;51.828;6.466;2024-03-17T06:40:38;8.00;99.90
20376;DHT22;10347;51.828;6.466;2024-03-17T06:43:04;8.10;99.90
20376;DHT22;10347;51.828;6.466;2024-03-17T06:45:30;8.10;99.90
20376;DHT22;10347;51.828;6.466;2024-03-17T06:47:55;8.10;99.90
20376;DHT22;10347;51.828;6.466;2024-03-17T06:50:21;8.10;99.90
20376;DHT22;10347;51.828;6.466;2024-03-17T06:52:47;8.20;99.90
20376;DHT22;10347;51.828;6.466;2024-03-17T06:55:13;8.10;99.90
20376;DHT22;10347;51.828;6.466;2024-03-17T06:57:41;8.10;99.90
20376;DHT22;10347;51.828;6.466;2024-03-17T07:00:12;8.10;99.90
20376;DHT22;10347;51.828;6.466;2024-03-17T07:02:42;8.10;99.90
20376;DHT22;10347;51.828;6.466;2024-03-17T07:05:12;8.10;99.90
20376;DHT22;10347;51.828;6.466;2024-03-17T07:07:40;8.10;99.90
20376;DHT22;10347;51.828;6.466;2024-03-17T07:10:05;8.10;99.90
20376;DHT22;10347;51.828;6.466;2024-03-17T07:12:31;8.20;99.90
20376;DHT22;10347;51.828;6.466;2024-03-17T07:14:57;8.20;99.90
20376;DHT22;10347;51.828;6.466;2024-03-17T07:17:23;8.20;99.90
20376;DHT22;10347;51.828;6.466;2024-03-17T07:19:48;8.20;99.90
20376;DHT22;10347;51.828;6.466;2024-03-17T07:22:14;8.30;99.90
20376;DHT22;10347;51.828;6.466;2024-03-17T07:24:40;8.30;99.90
20376;DHT22;10347;51.828;6.466;2024-03-17T07:27:05;8.30;99.90
20376;DHT22;10347;51.828;6.466;2024-03-17T07:29:34;8.30;99.90
20376;DHT22;10347;51.828;6.466;2024-03-17T07:31:59;8.30;99.90
20376;DHT22;10347;51.828;6.466;2024-03-17T07:34:25;8.30;99.90
20376;DHT22;10347;51.828;6.466;2024-03-17T07:36:50;8.30;99.90
20376;DHT22;10347;51.828;6.466;2024-03-17T07:39:16;8.40;99.90
20376;DHT22;10347;51.828;6.466;2024-03-17T07:41:44;8.40;99.90
20376;DHT22;10347;51.828;6.466;2024-03-17T07:44:09;8.50;99.90
20376;DHT22;10347;51.828;6.466;2024-03-17T07:46:35;8.50;99.90
20376;DHT22;10347;51.828;6.466;2024-03-17T07:49:01;8.50;99.90
20376;DHT22;10347;51.828;6.466;2024-03-17T07:51:26;8.50;99.90
20376;DHT22;10347;51.828;6.466;2024-03-17T07:53:52;8.60;99.90
20376;DHT22;10347;51.828;6.466;2024-03-17T07:56:18;8.60;99.90
20376;DHT22;10347;51.828;6.466;2024-03-17T07:58:45;8.60;99.90
20376;DHT22;10347;51.828;6.466;2024-03-17T08:01:15;8.70;99.90
20376;DHT22;10347;51.828;6.466;2024-03-17T08:03:44;8.70;99.90
20376;DHT22;10347;51.828;6.466;2024-03-17T08:06:10;8.80;99.90
20376;DHT22;10347;51.828;6.466;2024-03-17T08:08:36;8.80;99.90
20376;DHT22;10347;51.828;6.466;2024-03-17T08:11:02;8.80;99.90
20376;DHT22;10347;51.828;6.466;2024-03-17T08:13:29;8.90;99.90
20376;DHT22;10347;51.828;6.466;2024-03-17T08:16:00;9.00;99.90
20376;DHT22;10347;51.828;6.466;2024-03-17T08:18:26;9.00;99.90
20376;DHT22;10347;51.828;6.466;2024-03-17T08:20:56;9.00;99.90
20376;DHT22;10347;51.828;6.466;2024-03-17T08:23:23;9.10;99.90
20376;DHT22;10347;51.828;6.466;2024-03-17T08:25:59;9.10;99.90
20376;DHT22;10347;51.828;6.466;2024-03-17T08:28:26;9.20;99.90
20376;DHT22;10347;51.828;6.466;2024-03-17T08:31:00;9.20;99.90
20376;DHT22;10347;51.828;6.466;2024-03-17T08:33:27;9.30;99.90
20376;DHT22;10347;51.828;6.466;2024-03-17T08:35:57;9.30;99.90
20376;DHT22;10347;51.828;6.466;2024-03-17T08:38:24;9.40;99.90
20376;DHT22;10347;51.828;6.466;2024-03-17T08:40:51;9.40;99.90
20376;DHT22;10347;51.828;6.466;2024-03-17T08:43:16;9.40;99.90
20376;DHT22;10347;51.828;6.466;2024-03-17T08:45:42;9.50;99.90
20376;DHT22;10347;51.828;6.466;2024-03-17T08:48:08;9.60;99.90
20376;DHT22;10347;51.828;6.466;2024-03-17T08:50:36;9.60;99.90
20376;DHT22;10347;51.828;6.466;2024-03-17T08:53:02;9.70;99.90
20376;DHT22;10347;51.828;6.466;2024-03-17T08:55:27;9.70;99.90
20376;DHT22;10347;51.828;6.466;2024-03-17T08:57:53;9.80;99.90
20376;DHT22;10347;51.828;6.466;2024-03-17T09:00:18;9.80;99.90
20376;DHT22;10347;51.828;6.466;2024-03-17T09:02:44;9.90;99.90
20376;DHT22;10347;51.828;6.466;2024-03-17T09:05:10;9.90;99.90
20376;DHT22;10347;51.828;6.466;2024-03-17T09:07:38;10.00;99.90
20376;DHT22;10347;51.828;6.466;2024-03-17T09:10:05;10.00;99.90
20376;DHT22;10347;51.828;6.466;2024-03-17T09:12:31;10.10;99.90
20376;DHT22;10347;51.828;6.466;2024-03-17T09:14:56;10.10;99.90
20376;DHT22;10347;51.828;6.466;2024-03-17T09:17:22;10.20;99.90
20376;DHT22;10347;51.828;6.466;2024-03-17T09:19:47;10.20;99.90
20376;DHT22;10347;51.828;6.466;2024-03-17T09:22:13;10.30;99.90
20376;DHT22;10347;51.828;6.466;2024-03-17T09:24:39;10.30;99.90
20376;DHT22;10347;51.828;6.466;2024-03-17T09:27:06;10.30;99.90
20376;DHT22;10347;51.828;6.466;2024-03-17T09:29:31;10.40;99.90
20376;DHT22;10347;51.828;6.466;2024-03-17T09:31:58;10.40;99.90
20376;DHT22;10347;51.828;6.466;2024-03-17T09:34:24;10.40;99.90
20376;DHT22;10347;51.828;6.466;2024-03-17T09:36:49;10.50;99.90
20376;DHT22;10347;51.828;6.466;2024-03-17T09:39:15;10.60;99.90
20376;DHT22;10347;51.828;6.466;2024-03-17T09:41:41;10.60;99.90
20376;DHT22;10347;51.828;6.466;2024-03-17T09:44:11;10.60;99.90
20376;DHT22;10347;51.828;6.466;2024-03-17T09:46:38;10.70;99.90
20376;DHT22;10347;51.828;6.466;2024-03-17T09:49:04;10.70;99.90
20376;DHT22;10347;51.828;6.466;2024-03-17T09:51:30;10.70;99.90
20376;DHT22;10347;51.828;6.466;2024-03-17T09:53:57;10.80;99.90
20376;DHT22;10347;51.828;6.466;2024-03-17T09:56:23;10.80;99.90
20376;DHT22;10347;51.828;6.466;2024-03-17T09:58:51;10.80;99.90
20376;DHT22;10347;51.828;6.466;2024-03-17T10:01:17;10.90;99.90
20376;DHT22;10347;51.828;6.466;2024-03-17T10:03:48;10.90;99.90
20376;DHT22;10347;51.828;6.466;2024-03-17T10:06:23;10.90;99.90
20376;DHT22;10347;51.828;6.466;2024-03-17T10:08:51;11.00;99.90
20376;DHT22;10347;51.828;6.466;2024-03-17T10:11:18;11.00;99.90
20376;DHT22;10347;51.828;6.466;2024-03-17T10:13:59;11.10;99.90
20376;DHT22;10347;51.828;6.466;2024-03-17T10:16:26;11.10;99.90
20376;DHT22;10347;51.828;6.466;2024-03-17T10:19:14;11.20;99.90
20376;DHT22;10347;51.828;6.466;2024-03-17T10:21:42;11.20;99.90
20376;DHT22;10347;51.828;6.466;2024-03-17T10:27:01;11.30;99.90
20376;DHT22;10347;51.828;6.466;2024-03-17T10:29:29;11.30;99.90
20376;DHT22;10347;51.828;6.466;2024-03-17T10:32:13;11.30;99.90
20376;DHT22;10347;51.828;6.466;2024-03-17T10:34:39;11.40;99.90
20376;DHT22;10347;51.828;6.466;2024-03-17T10:37:09;11.40;99.90
20376;DHT22;10347;51.828;6.466;2024-03-17T10:39:37;11.40;99.90
20376;DHT22;10347;51.828;6.466;2024-03-17T10:42:06;11.50;99.90
20376;DHT22;10347;51.828;6.466;2024-03-17T10:44:34;11.50;99.90
20376;DHT22;10347;51.828;6.466;2024-03-17T10:47:02;11.50;99.90
20376;DHT22;10347;51.828;6.466;2024-03-17T10:49:30;11.50;99.90
20376;DHT22;10347;51.828;6.466;2024-03-17T10:52:06;11.60;99.90
20376;DHT22;10347;51.828;6.466;2024-03-17T10:54:34;11.60;99.90
20376;DHT22;10347;51.828;6.466;2024-03-17T10:59:50;11.70;99.90
20376;DHT22;10347;51.828;6.466;2024-03-17T11:02:23;11.70;99.90
20376;DHT22;10347;51.828;6.466;2024-03-17T11:04:54;11.70;99.90
20376;DHT22;10347;51.828;6.466;2024-03-17T11:07:20;11.70;99.90
20376;DHT22;10347;51.828;6.466;2024-03-17T11:09:48;11.70;99.90
20376;DHT22;10347;51.828;6.466;2024-03-17T11:12:43;11.80;99.90
20376;DHT22;10347;51.828;6.466;2024-03-17T11:20:34;11.80;99.90
20376;DHT22;10347;51.828;6.466;2024-03-17T11:23:00;11.90;99.90
20376;DHT22;10347;51.828;6.466;2024-03-17T11:27:55;12.00;99.90
20376;DHT22;10347;51.828;6.466;2024-03-17T11:30:49;12.00;99.90
20376;DHT22;10347;51.828;6.466;2024-03-17T11:39:02;12.10;99.90
20376;DHT22;10347;51.828;6.466;2024-03-17T11:41:38;12.10;99.90
20376;DHT22;10347;51.828;6.466;2024-03-17T11:47:05;12.20;99.90
20376;DHT22;10347;51.828;6.466;2024-03-17T11:49:40;12.20;99.90
20376;DHT22;10347;51.828;6.466;2024-03-17T11:54:39;12.20;99.90
20376;DHT22;10347;51.828;6.466;2024-03-17T11:57:10;12.30;99.90
20376;DHT22;10347;51.828;6.466;2024-03-17T11:59:36;12.30;99.90
20376;DHT22;10347;51.828;6.466;2024-03-17T12:02:18;12.40;99.90
20376;DHT22;10347;51.828;6.466;2024-03-17T12:04:44;12.40;99.90
20376;DHT22;10347;51.828;6.466;2024-03-17T12:07:17;12.40;99.90
20376;DHT22;10347;51.828;6.466;2024-03-17T12:09:47;12.40;99.90
20376;DHT22;10347;51.828;6.466;2024-03-17T12:12:23;12.50;99.90
20376;DHT22;10347;51.828;6.466;2024-03-17T12:14:51;12.50;99.90
20376;DHT22;10347;51.828;6.466;2024-03-17T12:17:24;12.60;99.90
20376;DHT22;10347;51.828;6.466;2024-03-17T12:19:50;12.70;99.90
20376;DHT22;10347;51.828;6.466;2024-03-17T12:22:21;12.70;99.90
20376;DHT22;10347;51.828;6.466;2024-03-17T12:24:48;12.70;99.90
20376;DHT22;10347;51.828;6.466;2024-03-17T12:27:22;12.70;99.90
20376;DHT22;10347;51.828;6.466;2024-03-17T12:29:51;12.80;99.90
20376;DHT22;10347;51.828;6.466;2024-03-17T12:34:56;12.90;99.90
20376;DHT22;10347;51.828;6.466;2024-03-17T12:37:26;12.90;99.90
20376;DHT22;10347;51.828;6.466;2024-03-17T12:40:01;13.00;99.90
20376;DHT22;10347;51.828;6.466;2024-03-17T12:42:29;13.00;99.90
20376;DHT22;10347;51.828;6.466;2024-03-17T12:44:59;13.00;99.90
20376;DHT22;10347;51.828;6.466;2024-03-17T12:47:28;13.10;99.90
20376;DHT22;10347;51.828;6.466;2024-03-17T12:49:55;13.20;99.90
20376;DHT22;10347;51.828;6.466;2024-03-17T12:55:06;13.20;99.90
20376;DHT22;10347;51.828;6.466;2024-03-17T12:58:06;13.20;99.90
20376;DHT22;10347;51.828;6.466;2024-03-17T13:01:03;13.30;99.90
20376;DHT22;10347;51.828;6.466;2024-03-17T13:03:33;13.30;99.90
20376;DHT22;10347;51.828;6.466;2024-03-17T13:06:00;13.40;99.90
20376;DHT22;10347;51.828;6.466;2024-03-17T13:08:28;13.40;99.90
20376;DHT22;10347;51.828;6.466;2024-03-17T13:10:54;13.40;99.90
20376;DHT22;10347;51.828;6.466;2024-03-17T13:13:20;13.40;99.90
20376;DHT22;10347;51.828;6.466;2024-03-17T13:15:45;13.50;99.90
20376;DHT22;10347;51.828;6.466;2024-03-17T13:18:18;13.50;99.90
20376;DHT22;10347;51.828;6.466;2024-03-17T13:20:44;13.60;99.90
20376;DHT22;10347;51.828;6.466;2024-03-17T13:23:11;13.60;99.90
20376;DHT22;10347;51.828;6.466;2024-03-17T13:25:37;13.70;99.90
20376;DHT22;10347;51.828;6.466;2024-03-17T13:28:06;13.70;99.90
20376;DHT22;10347;51.828;6.466;2024-03-17T13:30:35;13.70;99.90
20376;DHT22;10347;51.828;6.466;2024-03-17T13:33:02;13.80;99.90
20376;DHT22;10347;51.828;6.466;2024-03-17T13:35:33;13.80;99.90
20376;DHT22;10347;51.828;6.466;2024-03-17T13:38:00;13.80;99.90
20376;DHT22;10347;51.828;6.466;2024-03-17T13:40:29;13.80;99.90
20376;DHT22;10347;51.828;6.466;2024-03-17T13:42:55;13.90;99.90
20376;DHT22;10347;51.828;6.466;2024-03-17T13:45:26;14.00;99.90
20376;DHT22;10347;51.828;6.466;2024-03-17T13:48:02;14.00;99.90
20376;DHT22;10347;51.828;6.466;2024-03-17T13:50:29;14.00;99.90
20376;DHT22;10347;51.828;6.466;2024-03-17T13:52:56;14.00;99.90
20376;DHT22;10347;51.828;6.466;2024-03-17T13:55:23;14.00;99.90
20376;DHT22;10347;51.828;6.466;2024-03-17T13:57:54;14.10;99.90
20376;DHT22;10347;51.828;6.466;2024-03-17T14:00:20;14.10;99.90
20376;DHT22;10347;51.828;6.466;2024-03-17T14:02:47;14.10;99.90
20376;DHT22;10347;51.828;6.466;2024-03-17T14:05:15;14.10;99.90
20376;DHT22;10347;51.828;6.466;2024-03-17T14:07:42;14.10;99.90
20376;DHT22;10347;51.828;6.466;2024-03-17T14:10:09;14.10;99.90
20376;DHT22;10347;51.828;6.466;2024-03-17T14:12:35;14.20;99.90
20376;DHT22;10347;51.828;6.466;2024-03-17T14:15:03;14.20;99.90
20376;DHT22;10347;51.828;6.466;2024-03-17T14:17:30;14.20;99.90
20376;DHT22;10347;51.828;6.466;2024-03-17T14:19:56;14.20;99.90
20376;DHT22;10347;51.828;6.466;2024-03-17T14:22:22;14.20;99.90
20376;DHT22;10347;51.828;6.466;2024-03-17T14:24:47;14.30;99.90
20376;DHT22;10347;51.828;6.466;2024-03-17T14:27:15;14.30;99.90
20376;DHT22;10347;51.828;6.466;2024-03-17T14:29:41;14.30;99.90
20376;DHT22;10347;51.828;6.466;2024-03-17T14:32:07;14.30;99.90
20376;DHT22;10347;51.828;6.466;2024-03-17T14:34:33;14.30;99.90
20376;DHT22;10347;51.828;6.466;2024-03-17T14:37:02;14.40;99.90
20376;DHT22;10347;51.828;6.466;2024-03-17T14:39:29;14.40;99.90
20376;DHT22;10347;51.828;6.466;2024-03-17T14:41:58;14.40;99.90
20376;DHT22;10347;51.828;6.466;2024-03-17T14:44:25;14.40;99.90
20376;DHT22;10347;51.828;6.466;2024-03-17T14:46:50;14.40;99.90
20376;DHT22;10347;51.828;6.466;2024-03-17T14:49:25;14.40;99.90
20376;DHT22;10347;51.828;6.466;2024-03-17T14:51:54;14.50;99.90
20376;DHT22;10347;51.828;6.466;2024-03-17T14:54:22;14.50;99.90
20376;DHT22;10347;51.828;6.466;2024-03-17T14:56:48;14.50;99.90
20376;DHT22;10347;51.828;6.466;2024-03-17T14:59:13;14.50;99.90
20376;DHT22;10347;51.828;6.466;2024-03-17T15:01:42;14.50;99.90
20376;DHT22;10347;51.828;6.466;2024-03-17T15:04:08;14.50;99.90
20376;DHT22;10347;51.828;6.466;2024-03-17T15:06:34;14.50;99.90
20376;DHT22;10347;51.828;6.466;2024-03-17T15:09:02;14.60;99.90
20376;DHT22;10347;51.828;6.466;2024-03-17T15:11:28;14.60;99.90
20376;DHT22;10347;51.828;6.466;2024-03-17T15:13:54;14.60;99.90
20376;DHT22;10347;51.828;6.466;2024-03-17T15:16:19;14.60;99.90
20376;DHT22;10347;51.828;6.466;2024-03-17T15:18:46;14.60;99.90
20376;DHT22;10347;51.828;6.466;2024-03-17T15:21:12;14.60;99.90
20376;DHT22;10347;51.828;6.466;2024-03-17T15:23:38;14.60;99.90
20376;DHT22;10347;51.828;6.466;2024-03-17T15:26:06;14.70;99.90
20376;DHT22;10347;51.828;6.466;2024-03-17T15:28:41;14.70;99.90
20376;DHT22;10347;51.828;6.466;2024-03-17T15:31:07;14.70;99.90
20376;DHT22;10347;51.828;6.466;2024-03-17T15:33:33;14.70;99.90
20376;DHT22;10347;51.828;6.466;2024-03-17T15:36:01;14.70;99.90
20376;DHT22;10347;51.828;6.466;2024-03-17T15:38:32;14.70;99.90
20376;DHT22;10347;51.828;6.466;2024-03-17T15:41:06;14.80;99.90
20376;DHT22;10347;51.828;6.466;2024-03-17T15:43:33;14.80;99.90
20376;DHT22;10347;51.828;6.466;2024-03-17T15:46:00;14.80;99.90
20376;DHT22;10347;51.828;6.466;2024-03-17T15:48:26;14.80;99.90
20376;DHT22;10347;51.828;6.466;2024-03-17T15:50:57;14.80;99.90
20376;DHT22;10347;51.828;6.466;2024-03-17T15:53:24;14.80;99.90
20376;DHT22;10347;51.828;6.466;2024-03-17T15:55:59;14.80;99.90
20376;DHT22;10347;51.828;6.466;2024-03-17T15:58:27;14.80;99.90
20376;DHT22;10347;51.828;6.466;2024-03-17T16:00:59;14.90;99.90
20376;DHT22;10347;51.828;6.466;2024-03-17T16:03:30;14.80;99.90
20376;DHT22;10347;51.828;6.466;2024-03-17T16:06:06;14.90;99.90
20376;DHT22;10347;51.828;6.466;2024-03-17T16:08:37;14.90;99.90
20376;DHT22;10347;51.828;6.466;2024-03-17T16:11:05;14.90;99.90
20376;DHT22;10347;51.828;6.466;2024-03-17T16:13:32;14.90;99.90